sensor_id;sensor_type;location;lat;lon;timestamp;temperature;humidity
3648;DHT22;1840;48.892;15.312;2022-12-29T00:02:15;-2.50;98.50
3648;DHT22;1840;48.892;15.312;2022-12-29T00:04:45;-2.50;98.50
3648;DHT22;1840;48.892;15.312;2022-12-29T00:07:13;-2.70;98.40
3648;DHT22;1840;48.892;15.312;2022-12-29T00:09:41;-2.90;98.20
3648;DHT22;1840;48.892;15.312;2022-12-29T00:12:09;-3.00;98.70
3648;DHT22;1840;48.892;15.312;2022-12-29T00:14:37;-3.20;98.60
3648;DHT22;1840;48.892;15.312;2022-12-29T00:17:23;-3.20;99.00
3648;DHT22;1840;48.892;15.312;2022-12-29T00:19:52;-3.10;99.40
3648;DHT22;1840;48.892;15.312;2022-12-29T00:22:37;-3.00;98.80
3648;DHT22;1840;48.892;15.312;2022-12-29T00:25:23;-3.20;99.10
3648;DHT22;1840;48.892;15.312;2022-12-29T00:28:08;-3.20;99.10
3648;DHT22;1840;48.892;15.312;2022-12-29T00:30:58;-3.00;98.90
3648;DHT22;1840;48.892;15.312;2022-12-29T00:33:44;-3.10;98.60
3648;DHT22;1840;48.892;15.312;2022-12-29T00:36:32;-3.20;98.70
3648;DHT22;1840;48.892;15.312;2022-12-29T00:39:05;-3.10;98.60
3648;DHT22;1840;48.892;15.312;2022-12-29T00:41:51;-3.00;98.50
3648;DHT22;1840;48.892;15.312;2022-12-29T00:44:45;-3.00;98.40
3648;DHT22;1840;48.892;15.312;2022-12-29T00:47:13;-2.90;98.60
3648;DHT22;1840;48.892;15.312;2022-12-29T00:49:41;-2.90;98.50
3648;DHT22;1840;48.892;15.312;2022-12-29T00:52:11;-2.90;98.50
3648;DHT22;1840;48.892;15.312;2022-12-29T00:54:40;-2.90;98.60
3648;DHT22;1840;48.892;15.312;2022-12-29T00:57:11;-2.90;98.50
3648;DHT22;1840;48.892;15.312;2022-12-29T00:59:41;-3.00;98.80
3648;DHT22;1840;48.892;15.312;2022-12-29T01:02:10;-3.00;98.70
3648;DHT22;1840;48.892;15.312;2022-12-29T01:04:38;-3.00;98.40
3648;DHT22;1840;48.892;15.312;2022-12-29T01:07:06;-3.00;98.60
3648;DHT22;1840;48.892;15.312;2022-12-29T01:09:35;-3.00;98.50
3648;DHT22;1840;48.892;15.312;2022-12-29T01:12:21;-2.90;98.50
3648;DHT22;1840;48.892;15.312;2022-12-29T01:15:08;-3.10;98.30
3648;DHT22;1840;48.892;15.312;2022-12-29T01:17:37;-3.20;98.60
3648;DHT22;1840;48.892;15.312;2022-12-29T01:20:06;-3.30;98.70
3648;DHT22;1840;48.892;15.312;2022-12-29T01:22:34;-3.40;98.60
3648;DHT22;1840;48.892;15.312;2022-12-29T01:25:04;-3.50;98.70
3648;DHT22;1840;48.892;15.312;2022-12-29T01:27:33;-3.40;98.80
3648;DHT22;1840;48.892;15.312;2022-12-29T01:30:01;-3.40;98.70
3648;DHT22;1840;48.892;15.312;2022-12-29T01:32:29;-3.50;98.80
3648;DHT22;1840;48.892;15.312;2022-12-29T01:34:58;-3.60;98.90
3648;DHT22;1840;48.892;15.312;2022-12-29T01:37:26;-3.70;99.30
3648;DHT22;1840;48.892;15.312;2022-12-29T01:39:54;-3.60;99.60
3648;DHT22;1840;48.892;15.312;2022-12-29T01:42:25;-3.70;99.30
3648;DHT22;1840;48.892;15.312;2022-12-29T01:44:55;-3.70;99.60
3648;DHT22;1840;48.892;15.312;2022-12-29T01:47:30;-3.60;99.40
3648;DHT22;1840;48.892;15.312;2022-12-29T01:50:04;-3.50;98.90
3648;DHT22;1840;48.892;15.312;2022-12-29T01:52:35;-3.50;98.90
3648;DHT22;1840;48.892;15.312;2022-12-29T01:55:06;-3.50;99.00
3648;DHT22;1840;48.892;15.312;2022-12-29T01:57:38;-3.40;98.90
3648;DHT22;1840;48.892;15.312;2022-12-29T02:00:10;-3.40;98.60
3648;DHT22;1840;48.892;15.312;2022-12-29T02:02:41;-3.40;99.10
3648;DHT22;1840;48.892;15.312;2022-12-29T02:05:13;-3.30;98.90
3648;DHT22;1840;48.892;15.312;2022-12-29T02:07:43;-3.20;98.80
3648;DHT22;1840;48.892;15.312;2022-12-29T02:10:12;-3.10;98.60
3648;DHT22;1840;48.892;15.312;2022-12-29T02:12:42;-3.10;98.80
3648;DHT22;1840;48.892;15.312;2022-12-29T02:15:10;-3.20;99.00
3648;DHT22;1840;48.892;15.312;2022-12-29T02:17:53;-3.30;99.10
3648;DHT22;1840;48.892;15.312;2022-12-29T02:24:06;-3.20;99.20
3648;DHT22;1840;48.892;15.312;2022-12-29T02:27:11;-3.20;99.20
3648;DHT22;1840;48.892;15.312;2022-12-29T02:29:59;-3.30;99.40
3648;DHT22;1840;48.892;15.312;2022-12-29T02:32:37;-3.40;99.60
3648;DHT22;1840;48.892;15.312;2022-12-29T02:35:11;-3.30;99.50
3648;DHT22;1840;48.892;15.312;2022-12-29T02:37:42;-3.30;99.10
3648;DHT22;1840;48.892;15.312;2022-12-29T02:40:19;-3.20;99.00
3648;DHT22;1840;48.892;15.312;2022-12-29T02:42:50;-3.30;98.70
3648;DHT22;1840;48.892;15.312;2022-12-29T02:45:29;-3.40;99.00
3648;DHT22;1840;48.892;15.312;2022-12-29T02:48:06;-3.40;98.90
3648;DHT22;1840;48.892;15.312;2022-12-29T02:50:38;-3.40;98.70
3648;DHT22;1840;48.892;15.312;2022-12-29T02:53:09;-3.40;98.80
3648;DHT22;1840;48.892;15.312;2022-12-29T02:55:38;-3.30;98.80
3648;DHT22;1840;48.892;15.312;2022-12-29T02:58:17;-3.30;98.50
3648;DHT22;1840;48.892;15.312;2022-12-29T03:00:55;-3.50;98.90
3648;DHT22;1840;48.892;15.312;2022-12-29T03:03:38;-3.50;99.10
3648;DHT22;1840;48.892;15.312;2022-12-29T03:06:20;-3.50;99.30
3648;DHT22;1840;48.892;15.312;2022-12-29T03:08:55;-3.30;99.00
3648;DHT22;1840;48.892;15.312;2022-12-29T03:11:32;-3.30;98.90
3648;DHT22;1840;48.892;15.312;2022-12-29T03:14:26;-3.40;98.70
3648;DHT22;1840;48.892;15.312;2022-12-29T03:17:19;-3.50;98.90
3648;DHT22;1840;48.892;15.312;2022-12-29T03:19:58;-3.50;99.20
3648;DHT22;1840;48.892;15.312;2022-12-29T03:22:30;-3.40;99.00
3648;DHT22;1840;48.892;15.312;2022-12-29T03:25:03;-3.40;99.40
3648;DHT22;1840;48.892;15.312;2022-12-29T03:27:35;-3.40;99.00
3648;DHT22;1840;48.892;15.312;2022-12-29T03:30:06;-3.40;98.90
3648;DHT22;1840;48.892;15.312;2022-12-29T03:32:39;-3.40;98.80
3648;DHT22;1840;48.892;15.312;2022-12-29T03:35:13;-3.50;98.70
3648;DHT22;1840;48.892;15.312;2022-12-29T03:37:48;-3.50;98.70
3648;DHT22;1840;48.892;15.312;2022-12-29T03:40:18;-3.50;98.80
3648;DHT22;1840;48.892;15.312;2022-12-29T03:42:48;-3.40;98.80
3648;DHT22;1840;48.892;15.312;2022-12-29T03:45:16;-3.30;98.60
3648;DHT22;1840;48.892;15.312;2022-12-29T03:47:44;-3.40;98.90
3648;DHT22;1840;48.892;15.312;2022-12-29T03:50:14;-3.40;98.90
3648;DHT22;1840;48.892;15.312;2022-12-29T03:52:44;-3.40;99.20
3648;DHT22;1840;48.892;15.312;2022-12-29T03:55:12;-3.20;99.10
3648;DHT22;1840;48.892;15.312;2022-12-29T03:57:40;-3.30;99.10
3648;DHT22;1840;48.892;15.312;2022-12-29T04:00:09;-3.40;99.00
3648;DHT22;1840;48.892;15.312;2022-12-29T04:02:37;-3.30;99.10
3648;DHT22;1840;48.892;15.312;2022-12-29T04:05:06;-3.40;98.80
3648;DHT22;1840;48.892;15.312;2022-12-29T04:07:36;-3.40;99.00
3648;DHT22;1840;48.892;15.312;2022-12-29T04:10:04;-3.60;98.90
3648;DHT22;1840;48.892;15.312;2022-12-29T04:12:32;-3.60;98.80
3648;DHT22;1840;48.892;15.312;2022-12-29T04:15:00;-3.70;99.30
3648;DHT22;1840;48.892;15.312;2022-12-29T04:17:28;-3.60;99.20
3648;DHT22;1840;48.892;15.312;2022-12-29T04:19:56;-3.50;99.50
3648;DHT22;1840;48.892;15.312;2022-12-29T04:22:46;-3.40;99.40
3648;DHT22;1840;48.892;15.312;2022-12-29T04:25:14;-3.40;99.40
3648;DHT22;1840;48.892;15.312;2022-12-29T04:27:44;-3.50;99.50
3648;DHT22;1840;48.892;15.312;2022-12-29T04:30:12;-3.40;99.80
3648;DHT22;1840;48.892;15.312;2022-12-29T04:32:40;-3.30;99.60
3648;DHT22;1840;48.892;15.312;2022-12-29T04:35:08;-3.30;99.50
3648;DHT22;1840;48.892;15.312;2022-12-29T04:37:36;-3.40;99.50
3648;DHT22;1840;48.892;15.312;2022-12-29T04:40:07;-3.50;99.70
3648;DHT22;1840;48.892;15.312;2022-12-29T04:42:35;-3.40;99.90
3648;DHT22;1840;48.892;15.312;2022-12-29T04:45:04;-3.30;99.80
3648;DHT22;1840;48.892;15.312;2022-12-29T04:47:32;-3.30;99.50
3648;DHT22;1840;48.892;15.312;2022-12-29T04:50:00;-3.20;99.40
3648;DHT22;1840;48.892;15.312;2022-12-29T04:52:28;-3.30;99.40
3648;DHT22;1840;48.892;15.312;2022-12-29T04:54:56;-3.20;99.40
3648;DHT22;1840;48.892;15.312;2022-12-29T04:57:26;-3.10;99.10
3648;DHT22;1840;48.892;15.312;2022-12-29T04:59:54;-3.20;99.10
3648;DHT22;1840;48.892;15.312;2022-12-29T05:02:22;-3.20;99.20
3648;DHT22;1840;48.892;15.312;2022-12-29T05:04:50;-3.20;99.00
3648;DHT22;1840;48.892;15.312;2022-12-29T05:07:18;-3.20;99.00
3648;DHT22;1840;48.892;15.312;2022-12-29T05:09:46;-3.50;99.10
3648;DHT22;1840;48.892;15.312;2022-12-29T05:12:14;-3.30;99.60
3648;DHT22;1840;48.892;15.312;2022-12-29T05:14:45;-3.20;99.20
3648;DHT22;1840;48.892;15.312;2022-12-29T05:17:13;-3.10;99.10
3648;DHT22;1840;48.892;15.312;2022-12-29T05:19:41;-3.00;98.90
3648;DHT22;1840;48.892;15.312;2022-12-29T05:22:09;-3.00;98.90
3648;DHT22;1840;48.892;15.312;2022-12-29T05:24:36;-3.00;98.80
3648;DHT22;1840;48.892;15.312;2022-12-29T05:27:04;-3.00;99.00
3648;DHT22;1840;48.892;15.312;2022-12-29T05:29:33;-3.00;98.90
3648;DHT22;1840;48.892;15.312;2022-12-29T05:32:03;-3.30;99.20
3648;DHT22;1840;48.892;15.312;2022-12-29T05:34:31;-3.20;99.50
3648;DHT22;1840;48.892;15.312;2022-12-29T05:36:59;-3.20;99.90
3648;DHT22;1840;48.892;15.312;2022-12-29T05:39:29;-3.10;99.80
3648;DHT22;1840;48.892;15.312;2022-12-29T05:41:57;-3.10;99.90
3648;DHT22;1840;48.892;15.312;2022-12-29T05:44:25;-3.10;99.60
3648;DHT22;1840;48.892;15.312;2022-12-29T05:46:53;-3.00;99.70
3648;DHT22;1840;48.892;15.312;2022-12-29T05:49:22;-2.80;99.30
3648;DHT22;1840;48.892;15.312;2022-12-29T05:51:50;-2.90;99.20
3648;DHT22;1840;48.892;15.312;2022-12-29T05:54:20;-2.90;98.90
3648;DHT22;1840;48.892;15.312;2022-12-29T05:56:48;-2.80;98.80
3648;DHT22;1840;48.892;15.312;2022-12-29T05:59:16;-2.80;99.00
3648;DHT22;1840;48.892;15.312;2022-12-29T06:01:44;-2.80;98.60
3648;DHT22;1840;48.892;15.312;2022-12-29T06:04:13;-3.00;98.70
3648;DHT22;1840;48.892;15.312;2022-12-29T06:06:42;-3.10;99.20
3648;DHT22;1840;48.892;15.312;2022-12-29T06:09:10;-3.00;99.10
3648;DHT22;1840;48.892;15.312;2022-12-29T06:11:38;-3.20;99.00
3648;DHT22;1840;48.892;15.312;2022-12-29T06:14:06;-3.20;99.50
3648;DHT22;1840;48.892;15.312;2022-12-29T06:16:34;-3.10;99.00
3648;DHT22;1840;48.892;15.312;2022-12-29T06:19:06;-3.30;99.20
3648;DHT22;1840;48.892;15.312;2022-12-29T06:21:34;-3.30;99.40
3648;DHT22;1840;48.892;15.312;2022-12-29T06:24:04;-3.10;99.30
3648;DHT22;1840;48.892;15.312;2022-12-29T06:26:32;-3.10;99.00
3648;DHT22;1840;48.892;15.312;2022-12-29T06:29:00;-3.10;98.90
3648;DHT22;1840;48.892;15.312;2022-12-29T06:31:29;-3.30;98.90
3648;DHT22;1840;48.892;15.312;2022-12-29T06:33:57;-3.40;99.20
3648;DHT22;1840;48.892;15.312;2022-12-29T06:36:33;-3.40;99.40
3648;DHT22;1840;48.892;15.312;2022-12-29T06:39:03;-3.20;99.30
3648;DHT22;1840;48.892;15.312;2022-12-29T06:41:31;-3.00;99.20
3648;DHT22;1840;48.892;15.312;2022-12-29T06:43:59;-3.00;98.90
3648;DHT22;1840;48.892;15.312;2022-12-29T06:46:27;-3.00;99.10
3648;DHT22;1840;48.892;15.312;2022-12-29T06:48:55;-3.20;99.60
3648;DHT22;1840;48.892;15.312;2022-12-29T06:51:23;-3.10;99.60
3648;DHT22;1840;48.892;15.312;2022-12-29T06:53:51;-3.00;99.50
3648;DHT22;1840;48.892;15.312;2022-12-29T06:56:21;-2.90;99.40
3648;DHT22;1840;48.892;15.312;2022-12-29T06:58:52;-3.10;99.40
3648;DHT22;1840;48.892;15.312;2022-12-29T07:01:20;-3.00;99.70
3648;DHT22;1840;48.892;15.312;2022-12-29T07:03:48;-2.80;99.60
3648;DHT22;1840;48.892;15.312;2022-12-29T07:06:16;-2.60;99.50
3648;DHT22;1840;48.892;15.312;2022-12-29T07:08:44;-2.60;99.30
3648;DHT22;1840;48.892;15.312;2022-12-29T07:11:12;-2.50;99.30
3648;DHT22;1840;48.892;15.312;2022-12-29T07:13:42;-2.80;99.40
3648;DHT22;1840;48.892;15.312;2022-12-29T07:16:10;-2.90;99.60
3648;DHT22;1840;48.892;15.312;2022-12-29T07:18:38;-2.80;99.90
3648;DHT22;1840;48.892;15.312;2022-12-29T07:21:06;-2.80;99.90
3648;DHT22;1840;48.892;15.312;2022-12-29T07:23:34;-2.70;99.60
3648;DHT22;1840;48.892;15.312;2022-12-29T07:26:04;-2.70;99.70
3648;DHT22;1840;48.892;15.312;2022-12-29T07:28:33;-2.80;99.60
3648;DHT22;1840;48.892;15.312;2022-12-29T07:31:03;-3.00;99.90
3648;DHT22;1840;48.892;15.312;2022-12-29T07:33:32;-3.00;99.90
3648;DHT22;1840;48.892;15.312;2022-12-29T07:36:00;-2.80;99.90
3648;DHT22;1840;48.892;15.312;2022-12-29T07:38:28;-2.80;99.60
3648;DHT22;1840;48.892;15.312;2022-12-29T07:40:57;-2.90;99.90
3648;DHT22;1840;48.892;15.312;2022-12-29T07:43:25;-2.80;99.90
3648;DHT22;1840;48.892;15.312;2022-12-29T07:45:54;-2.70;99.90
3648;DHT22;1840;48.892;15.312;2022-12-29T07:48:23;-2.60;99.90
3648;DHT22;1840;48.892;15.312;2022-12-29T07:50:52;-2.50;99.90
3648;DHT22;1840;48.892;15.312;2022-12-29T07:53:20;-2.40;99.90
3648;DHT22;1840;48.892;15.312;2022-12-29T07:55:48;-2.10;99.90
3648;DHT22;1840;48.892;15.312;2022-12-29T07:58:16;-2.00;99.90
3648;DHT22;1840;48.892;15.312;2022-12-29T08:00:45;-1.90;99.90
3648;DHT22;1840;48.892;15.312;2022-12-29T08:03:13;-1.70;99.90
3648;DHT22;1840;48.892;15.312;2022-12-29T08:05:42;-1.60;99.90
3648;DHT22;1840;48.892;15.312;2022-12-29T08:08:10;-1.60;99.90
3648;DHT22;1840;48.892;15.312;2022-12-29T08:10:38;-1.40;99.90
3648;DHT22;1840;48.892;15.312;2022-12-29T08:13:06;-1.20;99.90
3648;DHT22;1840;48.892;15.312;2022-12-29T08:15:34;-1.30;99.90
3648;DHT22;1840;48.892;15.312;2022-12-29T08:18:03;-1.40;99.80
3648;DHT22;1840;48.892;15.312;2022-12-29T08:20:32;-1.50;99.90
3648;DHT22;1840;48.892;15.312;2022-12-29T08:23:01;-1.50;99.90
3648;DHT22;1840;48.892;15.312;2022-12-29T08:25:29;-1.30;99.90
3648;DHT22;1840;48.892;15.312;2022-12-29T08:27:57;-0.90;99.90
3648;DHT22;1840;48.892;15.312;2022-12-29T08:30:25;-1.00;99.90
3648;DHT22;1840;48.892;15.312;2022-12-29T08:32:53;-1.10;99.90
3648;DHT22;1840;48.892;15.312;2022-12-29T08:35:21;-1.10;99.90
3648;DHT22;1840;48.892;15.312;2022-12-29T08:37:49;-1.20;99.90
3648;DHT22;1840;48.892;15.312;2022-12-29T08:40:19;-1.10;99.90
3648;DHT22;1840;48.892;15.312;2022-12-29T08:42:47;-1.10;99.80
3648;DHT22;1840;48.892;15.312;2022-12-29T08:45:15;-1.00;99.90
3648;DHT22;1840;48.892;15.312;2022-12-29T08:47:43;-1.00;99.90
3648;DHT22;1840;48.892;15.312;2022-12-29T08:50:11;-1.00;99.90
3648;DHT22;1840;48.892;15.312;2022-12-29T08:52:39;-0.90;99.90
3648;DHT22;1840;48.892;15.312;2022-12-29T08:55:08;-1.00;99.90
3648;DHT22;1840;48.892;15.312;2022-12-29T08:57:37;-1.00;99.90
3648;DHT22;1840;48.892;15.312;2022-12-29T09:00:06;-0.90;99.90
3648;DHT22;1840;48.892;15.312;2022-12-29T09:02:35;-0.90;99.90
3648;DHT22;1840;48.892;15.312;2022-12-29T09:05:04;-0.80;99.90
3648;DHT22;1840;48.892;15.312;2022-12-29T09:07:32;-0.60;99.90
3648;DHT22;1840;48.892;15.312;2022-12-29T09:10:00;-0.50;99.90
3648;DHT22;1840;48.892;15.312;2022-12-29T09:12:28;-0.40;99.90
3648;DHT22;1840;48.892;15.312;2022-12-29T09:15:05;-0.40;99.90
3648;DHT22;1840;48.892;15.312;2022-12-29T09:17:33;-0.30;99.90
3648;DHT22;1840;48.892;15.312;2022-12-29T09:20:12;-0.40;99.90
3648;DHT22;1840;48.892;15.312;2022-12-29T09:22:40;-0.20;99.90
3648;DHT22;1840;48.892;15.312;2022-12-29T09:25:09;-0.30;99.60
3648;DHT22;1840;48.892;15.312;2022-12-29T09:27:38;-0.20;99.90
3648;DHT22;1840;48.892;15.312;2022-12-29T09:30:10;-0.20;99.90
3648;DHT22;1840;48.892;15.312;2022-12-29T09:32:38;-0.20;99.90
3648;DHT22;1840;48.892;15.312;2022-12-29T09:35:11;0.00;99.90
3648;DHT22;1840;48.892;15.312;2022-12-29T09:37:40;0.10;99.60
3648;DHT22;1840;48.892;15.312;2022-12-29T09:40:22;-0.20;99.80
3648;DHT22;1840;48.892;15.312;2022-12-29T09:43:03;-0.20;99.90
3648;DHT22;1840;48.892;15.312;2022-12-29T09:45:38;-0.10;99.90
3648;DHT22;1840;48.892;15.312;2022-12-29T09:48:14;0.20;99.90
3648;DHT22;1840;48.892;15.312;2022-12-29T09:50:46;0.30;99.90
3648;DHT22;1840;48.892;15.312;2022-12-29T09:53:18;0.30;99.70
3648;DHT22;1840;48.892;15.312;2022-12-29T09:55:53;0.00;99.90
3648;DHT22;1840;48.892;15.312;2022-12-29T09:58:25;0.00;99.90
3648;DHT22;1840;48.892;15.312;2022-12-29T10:01:01;-0.10;99.90
3648;DHT22;1840;48.892;15.312;2022-12-29T10:03:40;-0.10;99.90
3648;DHT22;1840;48.892;15.312;2022-12-29T10:06:13;0.10;99.90
3648;DHT22;1840;48.892;15.312;2022-12-29T10:08:48;0.30;99.90
3648;DHT22;1840;48.892;15.312;2022-12-29T10:11:29;0.60;99.90
3648;DHT22;1840;48.892;15.312;2022-12-29T10:14:10;0.30;99.80
3648;DHT22;1840;48.892;15.312;2022-12-29T10:16:49;0.30;99.90
3648;DHT22;1840;48.892;15.312;2022-12-29T10:19:39;0.60;99.90
3648;DHT22;1840;48.892;15.312;2022-12-29T10:22:19;0.40;99.80
3648;DHT22;1840;48.892;15.312;2022-12-29T10:24:53;0.40;99.90
3648;DHT22;1840;48.892;15.312;2022-12-29T10:27:22;0.50;99.90
3648;DHT22;1840;48.892;15.312;2022-12-29T10:29:54;0.40;99.90
3648;DHT22;1840;48.892;15.312;2022-12-29T10:32:29;0.50;99.90
3648;DHT22;1840;48.892;15.312;2022-12-29T10:35:05;0.60;99.60
3648;DHT22;1840;48.892;15.312;2022-12-29T10:37:38;0.70;99.70
3648;DHT22;1840;48.892;15.312;2022-12-29T10:40:15;0.70;99.60
3648;DHT22;1840;48.892;15.312;2022-12-29T10:42:50;1.00;99.90
3648;DHT22;1840;48.892;15.312;2022-12-29T10:45:22;1.10;99.90
3648;DHT22;1840;48.892;15.312;2022-12-29T10:47:57;1.40;99.90
3648;DHT22;1840;48.892;15.312;2022-12-29T10:50:27;1.50;99.70
3648;DHT22;1840;48.892;15.312;2022-12-29T10:52:58;1.70;99.90
3648;DHT22;1840;48.892;15.312;2022-12-29T10:55:31;1.90;99.30
3648;DHT22;1840;48.892;15.312;2022-12-29T10:58:03;2.00;99.40
3648;DHT22;1840;48.892;15.312;2022-12-29T11:00:32;2.10;98.90
3648;DHT22;1840;48.892;15.312;2022-12-29T11:03:21;1.60;98.60
3648;DHT22;1840;48.892;15.312;2022-12-29T11:05:57;1.50;99.20
3648;DHT22;1840;48.892;15.312;2022-12-29T11:08:31;1.40;99.00
3648;DHT22;1840;48.892;15.312;2022-12-29T11:11:03;1.30;99.00
3648;DHT22;1840;48.892;15.312;2022-12-29T11:13:33;1.10;99.20
3648;DHT22;1840;48.892;15.312;2022-12-29T11:16:05;1.30;99.60
3648;DHT22;1840;48.892;15.312;2022-12-29T11:18:37;1.10;99.20
3648;DHT22;1840;48.892;15.312;2022-12-29T11:21:07;1.00;99.60
3648;DHT22;1840;48.892;15.312;2022-12-29T11:23:56;1.00;99.80
3648;DHT22;1840;48.892;15.312;2022-12-29T11:26:25;1.00;99.50
3648;DHT22;1840;48.892;15.312;2022-12-29T11:29:17;1.00;99.90
3648;DHT22;1840;48.892;15.312;2022-12-29T11:31:49;1.60;99.80
3648;DHT22;1840;48.892;15.312;2022-12-29T11:34:20;2.00;99.30
3648;DHT22;1840;48.892;15.312;2022-12-29T11:36:51;2.00;99.10
3648;DHT22;1840;48.892;15.312;2022-12-29T11:39:32;2.10;99.00
3648;DHT22;1840;48.892;15.312;2022-12-29T11:42:02;2.00;98.90
3648;DHT22;1840;48.892;15.312;2022-12-29T11:44:36;2.00;99.00
3648;DHT22;1840;48.892;15.312;2022-12-29T11:47:05;1.90;98.80
3648;DHT22;1840;48.892;15.312;2022-12-29T11:49:38;1.90;98.70
3648;DHT22;1840;48.892;15.312;2022-12-29T11:52:07;2.00;98.50
3648;DHT22;1840;48.892;15.312;2022-12-29T11:54:36;1.90;98.80
3648;DHT22;1840;48.892;15.312;2022-12-29T11:57:10;2.10;99.10
3648;DHT22;1840;48.892;15.312;2022-12-29T11:59:44;2.30;99.20
3648;DHT22;1840;48.892;15.312;2022-12-29T12:02:30;2.60;99.00
3648;DHT22;1840;48.892;15.312;2022-12-29T12:05:15;2.70;98.40
3648;DHT22;1840;48.892;15.312;2022-12-29T12:07:49;2.60;98.50
3648;DHT22;1840;48.892;15.312;2022-12-29T12:10:21;2.70;99.00
3648;DHT22;1840;48.892;15.312;2022-12-29T12:12:56;2.60;98.60
3648;DHT22;1840;48.892;15.312;2022-12-29T12:15:30;2.90;98.90
3648;DHT22;1840;48.892;15.312;2022-12-29T12:18:03;2.90;99.10
3648;DHT22;1840;48.892;15.312;2022-12-29T12:20:42;2.80;98.90
3648;DHT22;1840;48.892;15.312;2022-12-29T12:23:24;2.70;99.40
3648;DHT22;1840;48.892;15.312;2022-12-29T12:25:59;3.00;99.40
3648;DHT22;1840;48.892;15.312;2022-12-29T12:28:37;3.00;99.30
3648;DHT22;1840;48.892;15.312;2022-12-29T12:31:17;2.90;99.30
3648;DHT22;1840;48.892;15.312;2022-12-29T12:33:50;3.00;99.00
3648;DHT22;1840;48.892;15.312;2022-12-29T12:36:43;3.00;99.10
3648;DHT22;1840;48.892;15.312;2022-12-29T12:39:23;3.20;98.90
3648;DHT22;1840;48.892;15.312;2022-12-29T12:42:03;3.40;98.70
3648;DHT22;1840;48.892;15.312;2022-12-29T12:44:41;3.50;98.70
3648;DHT22;1840;48.892;15.312;2022-12-29T12:47:23;3.40;98.20
3648;DHT22;1840;48.892;15.312;2022-12-29T12:50:12;3.40;98.20
3648;DHT22;1840;48.892;15.312;2022-12-29T12:52:53;3.30;98.30
3648;DHT22;1840;48.892;15.312;2022-12-29T12:55:39;3.20;98.10
3648;DHT22;1840;48.892;15.312;2022-12-29T12:58:16;3.00;98.50
3648;DHT22;1840;48.892;15.312;2022-12-29T13:01:00;3.10;98.80
3648;DHT22;1840;48.892;15.312;2022-12-29T13:03:47;3.10;98.70
3648;DHT22;1840;48.892;15.312;2022-12-29T13:06:25;3.20;98.40
3648;DHT22;1840;48.892;15.312;2022-12-29T13:09:09;3.20;98.50
3648;DHT22;1840;48.892;15.312;2022-12-29T13:11:55;3.10;98.50
3648;DHT22;1840;48.892;15.312;2022-12-29T13:14:31;3.10;98.50
3648;DHT22;1840;48.892;15.312;2022-12-29T13:17:08;3.20;98.50
3648;DHT22;1840;48.892;15.312;2022-12-29T13:19:41;3.10;98.20
3648;DHT22;1840;48.892;15.312;2022-12-29T13:22:21;3.10;98.30
3648;DHT22;1840;48.892;15.312;2022-12-29T13:25:04;3.10;98.30
3648;DHT22;1840;48.892;15.312;2022-12-29T13:27:40;3.10;98.10
3648;DHT22;1840;48.892;15.312;2022-12-29T13:30:15;2.90;98.50
3648;DHT22;1840;48.892;15.312;2022-12-29T13:32:55;2.90;98.00
3648;DHT22;1840;48.892;15.312;2022-12-29T13:35:41;2.80;98.10
3648;DHT22;1840;48.892;15.312;2022-12-29T13:38:13;2.70;98.40
3648;DHT22;1840;48.892;15.312;2022-12-29T13:40:50;2.50;98.70
3648;DHT22;1840;48.892;15.312;2022-12-29T13:43:20;2.50;98.80
3648;DHT22;1840;48.892;15.312;2022-12-29T13:45:56;2.60;98.70
3648;DHT22;1840;48.892;15.312;2022-12-29T13:48:34;2.70;98.30
3648;DHT22;1840;48.892;15.312;2022-12-29T13:51:04;2.70;98.00
3648;DHT22;1840;48.892;15.312;2022-12-29T13:53:38;2.60;98.20
3648;DHT22;1840;48.892;15.312;2022-12-29T13:56:14;2.50;98.20
3648;DHT22;1840;48.892;15.312;2022-12-29T13:58:53;2.30;98.70
3648;DHT22;1840;48.892;15.312;2022-12-29T14:01:24;2.30;98.90
3648;DHT22;1840;48.892;15.312;2022-12-29T14:03:57;2.20;98.70
3648;DHT22;1840;48.892;15.312;2022-12-29T14:06:27;2.20;98.90
3648;DHT22;1840;48.892;15.312;2022-12-29T14:08:57;2.20;98.50
3648;DHT22;1840;48.892;15.312;2022-12-29T14:11:31;2.30;98.60
3648;DHT22;1840;48.892;15.312;2022-12-29T14:14:10;2.40;98.50
3648;DHT22;1840;48.892;15.312;2022-12-29T14:16:39;2.40;98.50
3648;DHT22;1840;48.892;15.312;2022-12-29T14:19:13;2.40;98.50
3648;DHT22;1840;48.892;15.312;2022-12-29T14:21:51;2.40;98.40
3648;DHT22;1840;48.892;15.312;2022-12-29T14:24:43;2.30;98.50
3648;DHT22;1840;48.892;15.312;2022-12-29T14:27:53;2.20;98.60
3648;DHT22;1840;48.892;15.312;2022-12-29T14:30:47;2.00;98.80
3648;DHT22;1840;48.892;15.312;2022-12-29T14:33:16;2.00;98.70
3648;DHT22;1840;48.892;15.312;2022-12-29T14:35:46;1.60;98.90
3648;DHT22;1840;48.892;15.312;2022-12-29T14:38:22;1.50;99.20
3648;DHT22;1840;48.892;15.312;2022-12-29T14:40:51;1.40;99.40
3648;DHT22;1840;48.892;15.312;2022-12-29T14:43:24;1.50;99.00
3648;DHT22;1840;48.892;15.312;2022-12-29T14:45:58;1.60;98.70
3648;DHT22;1840;48.892;15.312;2022-12-29T14:48:34;1.50;98.60
3648;DHT22;1840;48.892;15.312;2022-12-29T14:51:20;1.50;98.80
3648;DHT22;1840;48.892;15.312;2022-12-29T14:53:50;1.40;99.00
3648;DHT22;1840;48.892;15.312;2022-12-29T14:56:20;1.30;99.10
3648;DHT22;1840;48.892;15.312;2022-12-29T14:58:54;1.40;99.00
3648;DHT22;1840;48.892;15.312;2022-12-29T15:01:34;1.40;98.80
3648;DHT22;1840;48.892;15.312;2022-12-29T15:04:13;1.30;99.00
3648;DHT22;1840;48.892;15.312;2022-12-29T15:06:42;1.30;99.00
3648;DHT22;1840;48.892;15.312;2022-12-29T15:09:22;1.30;98.80
3648;DHT22;1840;48.892;15.312;2022-12-29T15:11:53;1.20;98.70
3648;DHT22;1840;48.892;15.312;2022-12-29T15:14:34;1.00;98.50
3648;DHT22;1840;48.892;15.312;2022-12-29T15:17:09;1.00;98.60
3648;DHT22;1840;48.892;15.312;2022-12-29T15:19:38;0.90;98.70
3648;DHT22;1840;48.892;15.312;2022-12-29T15:22:07;0.90;98.70
3648;DHT22;1840;48.892;15.312;2022-12-29T15:24:41;0.80;98.70
3648;DHT22;1840;48.892;15.312;2022-12-29T15:27:13;0.70;98.60
3648;DHT22;1840;48.892;15.312;2022-12-29T15:29:45;0.70;99.00
3648;DHT22;1840;48.892;15.312;2022-12-29T15:32:19;0.60;98.90
3648;DHT22;1840;48.892;15.312;2022-12-29T15:34:49;0.80;98.90
3648;DHT22;1840;48.892;15.312;2022-12-29T15:37:19;0.80;98.80
3648;DHT22;1840;48.892;15.312;2022-12-29T15:39:48;0.70;98.80
3648;DHT22;1840;48.892;15.312;2022-12-29T15:42:32;0.60;99.10
3648;DHT22;1840;48.892;15.312;2022-12-29T15:45:07;0.60;98.90
3648;DHT22;1840;48.892;15.312;2022-12-29T15:47:38;0.70;98.80
3648;DHT22;1840;48.892;15.312;2022-12-29T15:50:13;0.70;98.80
3648;DHT22;1840;48.892;15.312;2022-12-29T15:52:42;0.70;98.70
3648;DHT22;1840;48.892;15.312;2022-12-29T15:55:19;0.60;98.60
3648;DHT22;1840;48.892;15.312;2022-12-29T15:57:48;0.40;98.60
3648;DHT22;1840;48.892;15.312;2022-12-29T16:00:26;0.50;98.80
3648;DHT22;1840;48.892;15.312;2022-12-29T16:02:55;0.40;98.80
3648;DHT22;1840;48.892;15.312;2022-12-29T16:05:32;0.60;98.80
3648;DHT22;1840;48.892;15.312;2022-12-29T16:08:01;0.50;98.80
3648;DHT22;1840;48.892;15.312;2022-12-29T16:10:33;0.40;98.70
3648;DHT22;1840;48.892;15.312;2022-12-29T16:13:05;0.30;98.90
3648;DHT22;1840;48.892;15.312;2022-12-29T16:15:45;0.40;98.70
3648;DHT22;1840;48.892;15.312;2022-12-29T16:18:21;0.20;98.90
3648;DHT22;1840;48.892;15.312;2022-12-29T16:20:51;0.00;99.30
3648;DHT22;1840;48.892;15.312;2022-12-29T16:23:23;-0.10;99.60
3648;DHT22;1840;48.892;15.312;2022-12-29T16:25:52;0.00;99.20
3648;DHT22;1840;48.892;15.312;2022-12-29T16:28:23;0.20;99.00
3648;DHT22;1840;48.892;15.312;2022-12-29T16:31:03;0.10;98.90
3648;DHT22;1840;48.892;15.312;2022-12-29T16:33:44;0.00;98.80